Pagrindinis puslapis
METAR-TAF:

METAR-TAF

Oro uostai :

Baltra Island, Galapagai, Ekvadoras

platuma: 00-27-14S, ilguma: 090-15-57W, Aukštis: 63 m

Dabartinis oras

Ataskaita buvo paskelbta 10 minutes, ne 16:00 UTC
Vėjas 13 kt iš Rytų/Pietryčių
Temperatūra 23°C
Drėgmė 65%
Slėgis 1016 hPa
Matomumas 10 km arba daugiau
Mažai debesys ne aukštis 2000 ft

METAR: SEGS 181600Z 12013KT 9999 FEW020 23/16 Q1016 A3001

Laikas: 10:10 (16:10 UTC)


TAF: trūkstamas

Orai ataskaitas ir orų prognozės (METAR, TAF).

turimą stotys yra geltonos ir raudonos taškus žemėlapyje.

Perkelti pele per norėdami pamatyti stoties vardą.

Tada spustelėkite, norėdami matyti oro stebėjimo ir prognozės.

Norėdami pakeisti žemėlapį: spustelėkite ant žalios mygtukų su juodo kryžiaus žemyn,; žalią mygtuką su brūkšneliu, jei norite nutolinti; arba žalių rodyklių gretimoms žemėlapius.


METAR-TAF: